createdAt,value
2016-08-02T00:00:40.003Z,16.6
2016-08-02T00:01:40.699Z,16.6
2016-08-02T00:02:40.696Z,16.62
2016-08-02T00:03:40.682Z,16.6
2016-08-02T00:04:39.964Z,16.62
2016-08-02T00:05:40.658Z,16.62
2016-08-02T00:06:41.367Z,16.63
2016-08-02T00:07:39.945Z,16.59
2016-08-02T00:08:39.931Z,16.49
2016-08-02T00:09:39.921Z,16.58
2016-08-02T00:10:40.615Z,16.58
2016-08-02T00:11:40.606Z,16.52
2016-08-02T00:12:39.896Z,16.5
2016-08-02T00:13:40.593Z,16.48
2016-08-02T00:14:39.886Z,16.55
2016-08-02T00:15:40.569Z,16.52
2016-08-02T00:16:40.577Z,16.55
2016-08-02T00:17:41.253Z,16.49
2016-08-02T00:18:40.538Z,16.58
2016-08-02T00:19:40.580Z,16.53
2016-08-02T00:20:39.816Z,16.52
2016-08-02T00:21:39.804Z,16.58
2016-08-02T00:22:41.210Z,16.45
2016-08-02T00:24:40.480Z,16.52
2016-08-02T00:25:39.819Z,16.48
2016-08-02T00:26:39.757Z,16.42
2016-08-02T00:27:39.752Z,16.53
2016-08-02T00:28:39.737Z,16.5
2016-08-02T00:29:40.437Z,16.45
2016-08-02T00:30:40.423Z,16.5
2016-08-02T00:31:40.417Z,16.34
2016-08-02T00:32:39.697Z,16.44
2016-08-02T00:33:40.399Z,16.37
2016-08-02T00:34:41.094Z,16.38
2016-08-02T00:35:39.673Z,16.41
2016-08-02T00:36:40.369Z,16.34
2016-08-02T00:37:41.064Z,16.37
2016-08-02T00:39:40.340Z,16.37
2016-08-02T00:40:39.625Z,16.42
2016-08-02T00:41:40.327Z,16.4
2016-08-02T00:42:40.308Z,16.42
2016-08-02T00:43:39.599Z,16.38
2016-08-02T00:44:39.588Z,16.44
2016-08-02T00:45:39.576Z,16.37
2016-08-02T00:46:40.275Z,16.35
2016-08-02T00:47:39.556Z,16.37
2016-08-02T00:48:40.260Z,16.37
2016-08-02T00:49:40.244Z,16.35
2016-08-02T00:50:39.534Z,16.35
2016-08-02T00:51:39.517Z,16.38
2016-08-02T00:52:39.507Z,16.37
2016-08-02T00:53:40.407Z,16.34
2016-08-02T00:54:40.199Z,16.33
2016-08-02T00:55:40.192Z,16.35
2016-08-02T00:56:39.475Z,16.4
2016-08-02T00:57:40.168Z,16.4
2016-08-02T00:58:40.222Z,16.45
2016-08-02T00:59:40.152Z,16.48
2016-08-02T01:00:39.434Z,16.49
2016-08-02T01:01:39.440Z,16.35
2016-08-02T01:02:40.883Z,16.48
2016-08-02T01:03:39.414Z,16.42
2016-08-02T01:04:40.103Z,16.5
2016-08-02T01:05:39.386Z,16.37
2016-08-02T01:06:40.085Z,16.38
2016-08-02T01:07:40.787Z,16.4
2016-08-02T01:08:40.977Z,16.35
2016-08-02T01:09:39.407Z,16.38
2016-08-02T01:10:39.343Z,16.38
2016-08-02T01:11:40.797Z,16.38
2016-08-02T01:12:40.025Z,16.38
2016-08-02T01:13:39.313Z,16.4
2016-08-02T01:14:39.301Z,16.34
2016-08-02T01:15:39.290Z,16.41
2016-08-02T01:16:39.993Z,16.33
2016-08-02T01:17:39.982Z,16.26
2016-08-02T01:18:39.265Z,16.31
2016-08-02T01:19:39.961Z,16.31
2016-08-02T01:20:39.299Z,16.3
2016-08-02T01:21:39.242Z,16.27
2016-08-02T01:22:39.225Z,16.27
2016-08-02T01:23:39.930Z,16.23
2016-08-02T01:24:39.921Z,16.27
2016-08-02T01:25:39.909Z,16.3
2016-08-02T01:26:39.895Z,16.25
2016-08-02T01:27:39.885Z,16.23
2016-08-02T01:28:39.171Z,16.25
2016-08-02T01:29:39.867Z,16.22
2016-08-02T01:30:39.155Z,16.23
2016-08-02T01:31:39.849Z,16.2
2016-08-02T01:32:39.131Z,16.2
2016-08-02T01:33:39.119Z,16.18
2016-08-02T01:34:39.110Z,16.18
2016-08-02T01:35:39.809Z,16.23
2016-08-02T01:36:39.109Z,16.18
2016-08-02T01:37:40.495Z,16.2
2016-08-02T01:38:39.785Z,16.18
2016-08-02T01:39:39.770Z,16.22
2016-08-02T01:40:39.053Z,16.2
2016-08-02T01:41:40.470Z,16.18
2016-08-02T01:42:39.750Z,16.18
2016-08-02T01:43:39.020Z,16.2
2016-08-02T01:44:39.013Z,16.16
2016-08-02T01:45:39.003Z,16.18
2016-08-02T01:46:39.702Z,16.12
2016-08-02T01:47:39.693Z,16.12
2016-08-02T01:48:40.392Z,16.2
2016-08-02T01:49:39.675Z,16.11
2016-08-02T01:50:39.666Z,16.14
2016-08-02T01:51:38.950Z,16.11
2016-08-02T01:52:39.642Z,16.16
2016-08-02T01:53:39.637Z,16.11
2016-08-02T01:54:39.633Z,16.07
2016-08-02T01:55:39.614Z,16.2
2016-08-02T01:56:38.899Z,16.07
2016-08-02T01:57:39.595Z,16.07
2016-08-02T01:58:40.291Z,16.06
2016-08-02T01:59:38.872Z,16.03
2016-08-02T02:00:38.857Z,15.99
2016-08-02T02:01:39.563Z,16.06
2016-08-02T02:02:39.559Z,16.01
2016-08-02T02:03:38.832Z,16
2016-08-02T02:04:38.822Z,16.01
2016-08-02T02:05:38.864Z,16
2016-08-02T02:06:38.806Z,16
2016-08-02T02:07:38.843Z,15.99
2016-08-02T02:08:39.547Z,15.96
2016-08-02T02:09:38.779Z,15.93
2016-08-02T02:10:39.475Z,15.89
2016-08-02T02:11:39.461Z,16.04
2016-08-02T02:12:38.747Z,15.96
2016-08-02T02:13:38.734Z,15.97
2016-08-02T02:14:39.438Z,15.96
2016-08-02T02:15:39.428Z,16
2016-08-02T02:16:38.708Z,15.93
2016-08-02T02:17:38.710Z,15.93
2016-08-02T02:18:39.395Z,15.93
2016-08-02T02:19:38.685Z,15.88
2016-08-02T02:20:38.673Z,15.89
2016-08-02T02:21:39.366Z,15.96
2016-08-02T02:22:39.362Z,15.88
2016-08-02T02:23:39.350Z,15.93
2016-08-02T02:24:38.630Z,15.92
2016-08-02T02:25:38.630Z,15.92
2016-08-02T02:26:39.324Z,15.89
2016-08-02T02:27:38.604Z,15.93
2016-08-02T02:28:39.299Z,15.93
2016-08-02T02:29:39.292Z,15.92
2016-08-02T02:30:39.277Z,15.89
2016-08-02T02:31:39.269Z,15.88
2016-08-02T02:32:38.548Z,15.93
2016-08-02T02:33:38.547Z,15.92
2016-08-02T02:34:39.243Z,15.88
2016-08-02T02:35:38.525Z,15.93
2016-08-02T02:36:39.223Z,15.94
2016-08-02T02:37:39.212Z,15.79
2016-08-02T02:38:39.202Z,15.81
2016-08-02T02:39:39.190Z,15.79
2016-08-02T02:40:39.181Z,15.78
2016-08-02T02:41:39.188Z,15.84
2016-08-02T02:42:38.454Z,15.75
2016-08-02T02:43:38.443Z,15.84
2016-08-02T02:44:38.434Z,15.81
2016-08-02T02:45:39.145Z,15.82
2016-08-02T02:46:38.414Z,15.85
2016-08-02T02:47:38.408Z,15.84
2016-08-02T02:48:38.396Z,15.75
2016-08-02T02:49:38.387Z,15.82
2016-08-02T02:50:38.376Z,15.72
2016-08-02T02:51:38.367Z,15.81
2016-08-02T02:52:38.356Z,15.81
2016-08-02T02:53:38.587Z,15.78
2016-08-02T02:54:38.339Z,15.81
2016-08-02T02:55:38.330Z,15.78
2016-08-02T02:56:39.030Z,15.76
2016-08-02T02:57:38.360Z,15.81
2016-08-02T02:58:39.014Z,15.81
2016-08-02T02:59:39.705Z,15.79
2016-08-02T03:00:38.284Z,15.89
2016-08-02T03:01:38.271Z,15.81
2016-08-02T03:02:38.317Z,15.79
2016-08-02T03:03:38.253Z,15.92
2016-08-02T03:04:39.658Z,15.81
2016-08-02T03:05:38.948Z,15.79
2016-08-02T03:06:38.233Z,15.78
2016-08-02T03:07:38.216Z,15.88
2016-08-02T03:08:38.210Z,15.82
2016-08-02T03:09:38.901Z,15.79
2016-08-02T03:10:38.938Z,15.64
2016-08-02T03:11:38.887Z,15.75
2016-08-02T03:12:38.167Z,15.78
2016-08-02T03:13:38.158Z,15.79
2016-08-02T03:14:38.148Z,15.74
2016-08-02T03:15:39.550Z,15.84
2016-08-02T03:16:38.838Z,15.78
2016-08-02T03:17:38.820Z,15.72
2016-08-02T03:18:39.519Z,15.79
2016-08-02T03:19:38.802Z,15.76
2016-08-02T03:20:38.109Z,15.78
2016-08-02T03:21:38.081Z,15.82
2016-08-02T03:22:38.782Z,15.82
2016-08-02T03:23:38.771Z,15.64
2016-08-02T03:24:38.046Z,15.68
2016-08-02T03:25:38.042Z,15.74
2016-08-02T03:26:38.739Z,15.64
2016-08-02T03:27:38.730Z,15.75
2016-08-02T03:28:38.014Z,15.68
2016-08-02T03:29:38.712Z,15.75
2016-08-02T03:30:37.994Z,15.74
2016-08-02T03:31:39.397Z,15.63
2016-08-02T03:32:38.715Z,15.74
2016-08-02T03:33:37.970Z,15.74
2016-08-02T03:34:37.959Z,15.68
2016-08-02T03:35:38.700Z,15.72
2016-08-02T03:36:37.938Z,15.72
2016-08-02T03:37:38.628Z,15.76
2016-08-02T03:38:38.619Z,15.68
2016-08-02T03:39:37.912Z,15.74
2016-08-02T03:40:39.305Z,15.74
2016-08-02T03:41:37.882Z,15.7
2016-08-02T03:42:38.586Z,15.74
2016-08-02T03:43:38.572Z,15.67
2016-08-02T03:44:37.861Z,15.74
2016-08-02T03:45:38.560Z,15.72
2016-08-02T03:46:38.542Z,15.75
2016-08-02T03:47:38.576Z,15.7
2016-08-02T03:48:38.573Z,15.74
2016-08-02T03:49:37.834Z,15.7
2016-08-02T03:50:38.544Z,15.72
2016-08-02T03:51:38.498Z,15.64
2016-08-02T03:52:37.773Z,15.72
2016-08-02T03:53:37.769Z,15.79
2016-08-02T03:54:38.461Z,15.66
2016-08-02T03:55:37.744Z,15.74
2016-08-02T03:56:37.740Z,15.75
2016-08-02T03:57:37.728Z,15.76
2016-08-02T03:58:38.422Z,15.75
2016-08-02T03:59:38.427Z,15.68
2016-08-02T04:00:38.405Z,15.74
2016-08-02T04:01:38.406Z,15.72
2016-08-02T04:02:38.388Z,15.82
2016-08-02T04:03:37.684Z,15.74
2016-08-02T04:04:37.657Z,15.81
2016-08-02T04:05:37.652Z,15.72
2016-08-02T04:06:38.353Z,15.72
2016-08-02T04:07:38.337Z,15.68
2016-08-02T04:08:38.337Z,15.67
2016-08-02T04:09:37.614Z,15.7
2016-08-02T04:10:38.310Z,15.7
2016-08-02T04:11:37.590Z,15.72
2016-08-02T04:12:38.346Z,15.74
2016-08-02T04:13:38.284Z,15.66
2016-08-02T04:14:37.570Z,15.68
2016-08-02T04:15:37.559Z,15.84
2016-08-02T04:16:38.261Z,15.82
2016-08-02T04:17:38.242Z,15.76
2016-08-02T04:18:37.531Z,15.84
2016-08-02T04:19:37.513Z,15.76
2016-08-02T04:20:37.513Z,15.79
2016-08-02T04:21:38.199Z,15.76
2016-08-02T04:22:37.484Z,15.85
2016-08-02T04:23:38.888Z,15.84
2016-08-02T04:24:37.461Z,15.78
2016-08-02T04:25:37.457Z,15.82
2016-08-02T04:26:38.150Z,15.76
2016-08-02T04:27:37.436Z,15.79
2016-08-02T04:28:38.840Z,15.88
2016-08-02T04:29:38.123Z,15.82
2016-08-02T04:30:37.409Z,15.79
2016-08-02T04:31:37.445Z,15.76
2016-08-02T04:32:37.389Z,15.88
2016-08-02T04:33:38.087Z,15.76
2016-08-02T04:34:37.366Z,15.81
2016-08-02T04:35:37.362Z,15.88
2016-08-02T04:36:37.366Z,15.89
2016-08-02T04:37:38.044Z,15.85
2016-08-02T04:38:38.042Z,15.88
2016-08-02T04:39:38.026Z,15.93
2016-08-02T04:40:37.310Z,15.89
2016-08-02T04:41:37.307Z,15.92
2016-08-02T04:42:37.295Z,15.94
2016-08-02T04:43:37.282Z,15.89
2016-08-02T04:44:37.274Z,15.93
2016-08-02T04:45:37.968Z,15.94
2016-08-02T04:46:37.956Z,15.99
2016-08-02T04:47:38.654Z,15.92
2016-08-02T04:48:37.941Z,15.94
2016-08-02T04:49:37.928Z,15.94
2016-08-02T04:50:37.218Z,15.92
2016-08-02T04:51:37.916Z,15.94
2016-08-02T04:52:37.189Z,15.88
2016-08-02T04:53:38.795Z,15.86
2016-08-02T04:54:37.172Z,15.92
2016-08-02T04:55:37.163Z,15.96
2016-08-02T04:56:37.861Z,15.92
2016-08-02T04:57:37.147Z,15.88
2016-08-02T04:58:37.839Z,15.93
2016-08-02T04:59:37.829Z,15.93
2016-08-02T05:00:37.825Z,15.92
2016-08-02T05:01:37.814Z,15.92
2016-08-02T05:02:37.808Z,15.94
2016-08-02T05:03:37.792Z,15.88
2016-08-02T05:04:37.075Z,15.93
2016-08-02T05:05:37.061Z,15.94
2016-08-02T05:06:37.058Z,15.89
2016-08-02T05:07:37.761Z,15.93
2016-08-02T05:08:37.799Z,15.92
2016-08-02T05:09:37.734Z,15.94
2016-08-02T05:10:37.013Z,15.88
2016-08-02T05:11:37.723Z,15.93
2016-08-02T05:12:37.703Z,15.93
2016-08-02T05:13:36.986Z,15.93
2016-08-02T05:14:37.689Z,15.92
2016-08-02T05:15:38.380Z,16.01
2016-08-02T05:16:37.665Z,15.94
2016-08-02T05:17:36.948Z,15.94
2016-08-02T05:18:37.652Z,15.97
2016-08-02T05:19:37.653Z,15.99
2016-08-02T05:20:37.643Z,15.97
2016-08-02T05:21:37.622Z,16
2016-08-02T05:22:37.656Z,16.06
2016-08-02T05:23:36.893Z,16.04
2016-08-02T05:24:36.878Z,16.09
2016-08-02T05:25:36.872Z,16.09
2016-08-02T05:26:36.858Z,16.15
2016-08-02T05:27:37.558Z,16.14
2016-08-02T05:28:37.547Z,16.12
2016-08-02T05:29:37.539Z,16.15
2016-08-02T05:30:37.533Z,16.15
2016-08-02T05:31:37.524Z,16.09
2016-08-02T05:32:37.513Z,16.11
2016-08-02T05:33:36.800Z,16.12
2016-08-02T05:34:36.783Z,16.09
2016-08-02T05:35:36.774Z,16.12
2016-08-02T05:36:36.772Z,16.12
2016-08-02T05:37:36.758Z,16.16
2016-08-02T05:38:36.747Z,16.15
2016-08-02T05:39:38.155Z,16.15
2016-08-02T05:40:37.450Z,16.15
2016-08-02T05:41:36.724Z,16.15
2016-08-02T05:42:37.415Z,16.16
2016-08-02T05:43:37.408Z,16.15
2016-08-02T05:44:38.108Z,16.22
2016-08-02T05:45:38.150Z,16.25
2016-08-02T05:46:37.645Z,16.2
2016-08-02T05:47:36.661Z,16.15
2016-08-02T05:48:36.656Z,16.18
2016-08-02T05:49:38.063Z,16.18
2016-08-02T05:50:37.337Z,16.16
2016-08-02T05:51:36.679Z,16.2
2016-08-02T05:52:37.319Z,16.23
2016-08-02T05:53:36.606Z,16.15
2016-08-02T05:54:36.603Z,16.2
2016-08-02T05:55:37.290Z,16.18
2016-08-02T05:56:36.580Z,16.16
2016-08-02T05:57:36.565Z,16.18
2016-08-02T05:58:36.615Z,16.14
2016-08-02T05:59:37.258Z,16.15
2016-08-02T06:00:36.537Z,16.18
2016-08-02T06:01:36.527Z,16.23
2016-08-02T06:02:37.224Z,16.26
2016-08-02T06:03:37.217Z,16.23
2016-08-02T06:04:37.264Z,16.31
2016-08-02T06:05:36.494Z,16.27
2016-08-02T06:06:37.201Z,16.23
2016-08-02T06:07:36.473Z,16.27
2016-08-02T06:08:36.461Z,16.25
2016-08-02T06:09:37.870Z,16.25
2016-08-02T06:10:37.854Z,16.23
2016-08-02T06:11:36.436Z,16.31
2016-08-02T06:12:37.838Z,16.25
2016-08-02T06:13:36.416Z,16.27
2016-08-02T06:14:37.113Z,16.3
2016-08-02T06:15:37.107Z,16.31
2016-08-02T06:16:36.386Z,16.33
2016-08-02T06:17:36.377Z,16.4
2016-08-02T06:18:36.367Z,16.37
2016-08-02T06:19:37.067Z,16.4
2016-08-02T06:20:37.058Z,16.37
2016-08-02T06:21:37.051Z,16.41
2016-08-02T06:22:37.045Z,16.42
2016-08-02T06:23:37.027Z,16.53
2016-08-02T06:24:36.322Z,16.42
2016-08-02T06:25:37.007Z,16.52
2016-08-02T06:26:36.997Z,16.45
2016-08-02T06:27:36.280Z,16.49
2016-08-02T06:28:36.274Z,16.56
2016-08-02T06:29:36.264Z,16.55
2016-08-02T06:30:36.254Z,16.55
2016-08-02T06:31:36.248Z,16.59
2016-08-02T06:32:36.243Z,16.63
2016-08-02T06:33:36.227Z,16.59
2016-08-02T06:34:36.218Z,16.68
2016-08-02T06:35:36.213Z,16.75
2016-08-02T06:36:37.613Z,16.7
2016-08-02T06:37:36.201Z,16.68
2016-08-02T06:38:36.892Z,16.71
2016-08-02T06:40:36.164Z,16.74
2016-08-02T06:41:36.868Z,16.71
2016-08-02T06:42:36.156Z,16.77
2016-08-02T06:43:37.548Z,16.71
2016-08-02T06:44:36.131Z,16.73
2016-08-02T06:45:36.833Z,16.73
2016-08-02T06:46:36.111Z,16.75
2016-08-02T06:47:36.098Z,16.7
2016-08-02T06:48:36.798Z,16.73
2016-08-02T06:49:36.090Z,16.74
2016-08-02T06:50:36.783Z,16.68
2016-08-02T06:51:36.062Z,16.6
2016-08-02T06:52:36.057Z,16.6
2016-08-02T06:53:37.661Z,16.53
2016-08-02T06:55:36.034Z,16.52
2016-08-02T06:56:36.727Z,16.58
2016-08-02T06:57:36.721Z,16.45
2016-08-02T06:58:36.708Z,16.58
2016-08-02T06:59:37.410Z,16.52
2016-08-02T07:00:35.997Z,16.49
2016-08-02T07:01:35.979Z,16.56
2016-08-02T07:02:36.673Z,16.52
2016-08-02T07:03:36.670Z,16.59
2016-08-02T07:04:37.362Z,16.52
2016-08-02T07:05:37.405Z,16.55
2016-08-02T07:06:36.647Z,16.5
2016-08-02T07:07:35.924Z,16.6
2016-08-02T07:08:36.630Z,16.59
2016-08-02T07:10:35.896Z,16.71
2016-08-02T07:11:36.599Z,16.73
2016-08-02T07:12:36.597Z,16.8
2016-08-02T07:13:35.868Z,16.99
2016-08-02T07:14:35.857Z,17.06
2016-08-02T07:15:36.562Z,17.03
2016-08-02T07:16:36.550Z,17.1
2016-08-02T07:17:37.295Z,17.14
2016-08-02T07:18:37.240Z,17.15
2016-08-02T07:19:36.530Z,17.22
2016-08-02T07:20:35.809Z,17.23
2016-08-02T07:21:37.210Z,17.22
2016-08-02T07:22:35.839Z,17.35
2016-08-02T07:23:37.212Z,17.36
2016-08-02T07:24:36.479Z,17.3
2016-08-02T07:25:35.815Z,17.4
2016-08-02T07:26:36.465Z,17.3
2016-08-02T07:27:35.747Z,17.36
2016-08-02T07:28:36.446Z,17.35
2016-08-02T07:29:36.441Z,17.38
2016-08-02T07:30:35.723Z,17.41
2016-08-02T07:31:35.713Z,17.35
2016-08-02T07:32:36.412Z,17.5
2016-08-02T07:33:36.404Z,17.4
2016-08-02T07:34:35.689Z,17.5
2016-08-02T07:35:36.386Z,17.48
2016-08-02T07:36:36.375Z,17.44
2016-08-02T07:37:36.378Z,17.48
2016-08-02T07:38:36.363Z,17.51
2016-08-02T07:39:35.647Z,17.55
2016-08-02T07:40:35.638Z,17.5
2016-08-02T07:41:37.053Z,17.59
2016-08-02T07:42:35.619Z,17.54
2016-08-02T07:43:37.032Z,17.51
2016-08-02T07:44:35.625Z,17.53
2016-08-02T07:45:36.311Z,17.43
2016-08-02T07:46:37.007Z,17.48
2016-08-02T07:47:35.586Z,17.47
2016-08-02T07:48:35.568Z,17.44
2016-08-02T07:49:35.561Z,17.36
2016-08-02T07:50:36.258Z,17.4
2016-08-02T07:51:35.547Z,17.32
2016-08-02T07:52:35.588Z,17.54
2016-08-02T07:53:35.528Z,17.33
2016-08-02T07:54:36.243Z,17.51
2016-08-02T07:55:35.515Z,17.48
2016-08-02T07:56:35.511Z,17.43
2016-08-02T07:57:36.206Z,17.51
2016-08-02T07:58:35.489Z,17.4
2016-08-02T07:59:36.897Z,17.5
2016-08-02T08:00:36.889Z,17.55
2016-08-02T08:01:36.878Z,17.5
2016-08-02T08:02:36.160Z,17.53
2016-08-02T08:03:35.450Z,17.66
2016-08-02T08:04:36.146Z,17.71
2016-08-02T08:05:36.141Z,17.78
2016-08-02T08:06:36.133Z,17.82
2016-08-02T08:07:36.121Z,17.82
2016-08-02T08:08:36.118Z,17.84
2016-08-02T08:09:36.101Z,17.84
2016-08-02T08:10:35.391Z,17.85
2016-08-02T08:11:36.091Z,17.82
2016-08-02T08:12:36.078Z,17.94
2016-08-02T08:13:35.367Z,17.89
2016-08-02T08:14:35.354Z,17.94
2016-08-02T08:15:36.055Z,18.02
2016-08-02T08:16:35.346Z,17.99
2016-08-02T08:17:35.348Z,18.07
2016-08-02T08:18:36.032Z,18.06
2016-08-02T08:19:36.024Z,18.18
2016-08-02T08:20:35.310Z,18.07
2016-08-02T08:21:36.009Z,18.06
2016-08-02T08:22:36.717Z,17.92
2016-08-02T08:23:35.992Z,17.95
2016-08-02T08:24:35.278Z,18
2016-08-02T08:25:35.976Z,17.97
2016-08-02T08:26:35.968Z,17.87
2016-08-02T08:27:35.959Z,17.94
2016-08-02T08:28:35.244Z,17.88
2016-08-02T08:29:35.941Z,17.91
2016-08-02T08:30:35.226Z,17.84
2016-08-02T08:31:35.926Z,17.87
2016-08-02T08:32:35.266Z,17.89
2016-08-02T08:33:35.200Z,17.85
2016-08-02T08:34:35.921Z,17.89
2016-08-02T08:35:36.602Z,17.97
2016-08-02T08:36:35.883Z,17.97
2016-08-02T08:37:35.881Z,18.09
2016-08-02T08:38:36.575Z,18.03
2016-08-02T08:39:36.568Z,18.04
2016-08-02T08:40:36.556Z,18.1
2016-08-02T08:41:35.137Z,18.1
2016-08-02T08:42:35.888Z,18.07
2016-08-02T08:43:36.542Z,18.09
2016-08-02T08:44:35.172Z,18.15
2016-08-02T08:45:35.817Z,18.17
2016-08-02T08:46:35.096Z,18.04
2016-08-02T08:47:35.795Z,18.07
2016-08-02T08:48:35.789Z,18.09
2016-08-02T08:49:36.485Z,17.94
2016-08-02T08:50:35.769Z,18.09
2016-08-02T08:51:35.762Z,18
2016-08-02T08:52:35.050Z,18
2016-08-02T08:53:36.357Z,17.97
2016-08-02T08:54:35.740Z,17.97
2016-08-02T08:55:35.022Z,17.88
2016-08-02T08:56:35.728Z,17.84
2016-08-02T08:57:36.422Z,17.85
2016-08-02T08:58:36.418Z,17.79
2016-08-02T08:59:36.417Z,17.78
2016-08-02T09:00:35.694Z,17.73
2016-08-02T09:01:34.986Z,17.7
2016-08-02T09:02:34.967Z,17.71
2016-08-02T09:03:36.432Z,17.62
2016-08-02T09:04:35.661Z,17.66
2016-08-02T09:05:35.643Z,17.54
2016-08-02T09:06:35.643Z,17.51
2016-08-02T09:07:35.628Z,17.53
2016-08-02T09:08:35.622Z,17.44
2016-08-02T09:09:35.616Z,17.46
2016-08-02T09:10:35.608Z,17.53
2016-08-02T09:11:35.612Z,17.46
2016-08-02T09:12:35.591Z,17.4
2016-08-02T09:13:34.923Z,17.35
2016-08-02T09:14:35.573Z,17.32
2016-08-02T09:15:35.562Z,17.3
2016-08-02T09:16:34.856Z,17.25
2016-08-02T09:17:34.843Z,17.18
2016-08-02T09:18:34.830Z,17.08
2016-08-02T09:19:34.823Z,17.04
2016-08-02T09:20:34.812Z,17.06
2016-08-02T09:21:36.217Z,16.96
2016-08-02T09:22:35.553Z,16.86
2016-08-02T09:23:34.842Z,16.83
2016-08-02T09:24:35.494Z,16.68
2016-08-02T09:25:35.475Z,16.83
2016-08-02T09:26:34.762Z,16.81
2016-08-02T09:27:34.748Z,16.71
2016-08-02T09:28:36.755Z,16.7
2016-08-02T09:29:35.455Z,16.71
2016-08-02T09:30:35.430Z,16.7
2016-08-02T09:31:36.130Z,16.62
2016-08-02T09:32:36.118Z,16.62
2016-08-02T09:33:35.400Z,16.59
2016-08-02T09:34:35.393Z,16.67
2016-08-02T09:35:34.671Z,16.71
2016-08-02T09:36:35.369Z,16.83
2016-08-02T09:37:35.357Z,16.75
2016-08-02T09:38:35.351Z,16.86
2016-08-02T09:39:35.341Z,16.95
2016-08-02T09:40:35.339Z,17.03
2016-08-02T09:41:34.629Z,17.1
2016-08-02T09:42:35.315Z,17.23
2016-08-02T09:43:34.599Z,17.33
2016-08-02T09:44:35.296Z,17.38
2016-08-02T09:45:36.000Z,17.4
2016-08-02T09:46:35.287Z,17.4
2016-08-02T09:47:35.980Z,17.54
2016-08-02T09:48:35.269Z,17.54
2016-08-02T09:49:34.541Z,17.59
2016-08-02T09:50:35.240Z,17.78
2016-08-02T09:51:35.940Z,17.69
2016-08-02T09:52:35.929Z,17.7
2016-08-02T09:53:35.209Z,17.79
2016-08-02T09:54:34.495Z,17.78
2016-08-02T09:55:34.490Z,17.85
2016-08-02T09:56:35.192Z,17.87
2016-08-02T09:57:34.487Z,17.92
2016-08-02T09:58:35.174Z,18.07
2016-08-02T09:59:35.171Z,18.02
2016-08-02T10:00:35.152Z,18.09
2016-08-02T10:01:34.442Z,18.15
2016-08-02T10:02:35.145Z,18.18
2016-08-02T10:03:34.421Z,18.21
2016-08-02T10:04:35.123Z,18.28
2016-08-02T10:05:35.819Z,18.39
2016-08-02T10:06:35.104Z,18.4
2016-08-02T10:07:34.395Z,18.36
2016-08-02T10:08:34.388Z,18.58
2016-08-02T10:09:35.085Z,18.62
2016-08-02T10:10:35.074Z,18.5
2016-08-02T10:11:35.067Z,18.58
2016-08-02T10:12:35.106Z,18.55
2016-08-02T10:13:35.751Z,18.54
2016-08-02T10:14:35.748Z,18.58
2016-08-02T10:15:35.029Z,18.49
2016-08-02T10:16:35.027Z,18.44
2016-08-02T10:17:34.311Z,18.44
2016-08-02T10:18:35.012Z,18.49
2016-08-02T10:19:35.007Z,18.52
2016-08-02T10:20:35.701Z,18.62
2016-08-02T10:21:34.282Z,18.46
2016-08-02T10:22:34.987Z,18.44
2016-08-02T10:23:34.262Z,18.36
2016-08-02T10:24:34.304Z,18.31
2016-08-02T10:25:34.964Z,18.28
2016-08-02T10:26:34.946Z,18.27
2016-08-02T10:27:34.232Z,18.31
2016-08-02T10:28:34.226Z,18.22
2016-08-02T10:29:34.926Z,18.21
2016-08-02T10:30:34.912Z,18.28
2016-08-02T10:31:34.903Z,18.15
2016-08-02T10:32:34.193Z,18.19
2016-08-02T10:33:34.888Z,18.18
2016-08-02T10:34:34.880Z,18.09
2016-08-02T10:35:34.882Z,18.09
2016-08-02T10:36:34.163Z,17.94
2016-08-02T10:37:34.857Z,17.97
2016-08-02T10:38:34.846Z,17.92
2016-08-02T10:39:34.840Z,17.92
2016-08-02T10:40:35.536Z,17.92
2016-08-02T10:41:34.114Z,17.92
2016-08-02T10:42:34.105Z,17.91
2016-08-02T10:43:34.809Z,17.95
2016-08-02T10:44:34.797Z,17.85
2016-08-02T10:45:34.082Z,18.03
2016-08-02T10:46:34.074Z,18.02
2016-08-02T10:47:34.770Z,18
2016-08-02T10:48:34.761Z,18.06
2016-08-02T10:49:34.055Z,18.03
2016-08-02T10:50:34.772Z,18.09
2016-08-02T10:51:34.035Z,18.15
2016-08-02T10:52:35.449Z,18.03
2016-08-02T10:53:34.725Z,18.1
2016-08-02T10:54:34.720Z,18.19
2016-08-02T10:55:33.981Z,18.18
2016-08-02T10:56:35.414Z,18.12
2016-08-02T10:57:34.036Z,18.13
2016-08-02T10:58:34.678Z,18.21
2016-08-02T10:59:34.668Z,18.13
2016-08-02T11:00:34.665Z,18.22
2016-08-02T11:01:34.658Z,18.28
2016-08-02T11:02:35.356Z,18.1
2016-08-02T11:03:35.345Z,18.12
2016-08-02T11:04:34.638Z,18.1
2016-08-02T11:05:33.919Z,18.12
2016-08-02T11:06:34.621Z,18.12
2016-08-02T11:07:35.311Z,18.09
2016-08-02T11:08:33.887Z,18.13
2016-08-02T11:09:34.593Z,18.06
2016-08-02T11:10:34.109Z,18
2016-08-02T11:11:34.590Z,18.03
2016-08-02T11:12:34.582Z,17.97
2016-08-02T11:13:34.559Z,17.97
2016-08-02T11:14:34.551Z,18
2016-08-02T11:15:33.838Z,18.06
2016-08-02T11:16:33.826Z,18.07
2016-08-02T11:17:34.523Z,18.07
2016-08-02T11:18:34.517Z,18.12
2016-08-02T11:19:33.796Z,18.1
2016-08-02T11:20:34.502Z,18.22
2016-08-02T11:21:34.487Z,18.18
2016-08-02T11:22:34.532Z,18.27
2016-08-02T11:23:33.763Z,18.36
2016-08-02T11:24:35.177Z,18.31
2016-08-02T11:26:35.152Z,18.37
2016-08-02T11:27:33.735Z,18.39
2016-08-02T11:28:33.724Z,18.43
2016-08-02T11:29:33.718Z,18.54
2016-08-02T11:30:34.418Z,18.55
2016-08-02T11:31:34.406Z,18.61
2016-08-02T11:32:35.105Z,18.62
2016-08-02T11:33:35.096Z,18.61
2016-08-02T11:34:33.673Z,18.76
2016-08-02T11:35:34.373Z,18.68
2016-08-02T11:36:33.660Z,18.68
2016-08-02T11:37:35.064Z,18.91
2016-08-02T11:38:35.058Z,18.84
2016-08-02T11:39:34.341Z,18.97
2016-08-02T11:41:35.035Z,19.13
2016-08-02T11:42:34.326Z,19.25
2016-08-02T11:43:33.604Z,19.21
2016-08-02T11:44:35.014Z,19.28
2016-08-02T11:45:35.006Z,19.36
2016-08-02T11:46:34.289Z,19.4
2016-08-02T11:47:35.004Z,19.36
2016-08-02T11:48:34.277Z,19.54
2016-08-02T11:49:33.555Z,19.43
2016-08-02T11:50:33.552Z,19.55
2016-08-02T11:51:33.546Z,19.4
2016-08-02T11:52:34.954Z,19.4
2016-08-02T11:53:34.238Z,19.38
2016-08-02T11:54:34.236Z,19.54
2016-08-02T11:55:33.518Z,19.42
2016-08-02T11:56:34.225Z,19.43
2016-08-02T11:57:34.215Z,19.43
2016-08-02T11:58:34.200Z,19.35
2016-08-02T11:59:33.493Z,19.32
2016-08-02T12:00:34.191Z,19.32
2016-08-02T12:01:33.486Z,19.14
2016-08-02T12:02:34.181Z,19.13
2016-08-02T12:03:34.931Z,19.14
2016-08-02T12:04:34.164Z,19.08
2016-08-02T12:05:34.863Z,19.01
2016-08-02T12:06:34.142Z,18.86
2016-08-02T12:07:34.147Z,18.99
2016-08-02T12:08:34.849Z,18.95
2016-08-02T12:09:34.849Z,19.06
2016-08-02T12:10:33.416Z,19.11
2016-08-02T12:11:34.829Z,19.29
2016-08-02T12:12:34.810Z,19.33
2016-08-02T12:13:33.402Z,19.4
2016-08-02T12:14:34.088Z,19.5
2016-08-02T12:15:34.081Z,19.57
2016-08-02T12:16:34.080Z,19.58
2016-08-02T12:17:33.363Z,19.65
2016-08-02T12:18:34.767Z,19.75
2016-08-02T12:19:34.075Z,19.72
2016-08-02T12:20:34.045Z,19.68
2016-08-02T12:21:34.048Z,19.57
2016-08-02T12:22:34.036Z,19.63
2016-08-02T12:23:34.022Z,19.53
2016-08-02T12:24:33.313Z,19.43
2016-08-02T12:25:34.009Z,19.4
2016-08-02T12:26:34.009Z,19.46
2016-08-02T12:27:33.295Z,19.32
2016-08-02T12:28:33.990Z,19.23
2016-08-02T12:29:33.280Z,19.11
2016-08-02T12:30:34.704Z,19.21
2016-08-02T12:31:33.257Z,19.21
2016-08-02T12:32:33.959Z,19.18
2016-08-02T12:33:33.244Z,19.11
2016-08-02T12:34:34.659Z,19.08
2016-08-02T12:35:33.231Z,19.15
2016-08-02T12:36:33.983Z,19.18
2016-08-02T12:37:33.931Z,19.13
2016-08-02T12:38:33.210Z,19.11
2016-08-02T12:39:34.618Z,18.99
2016-08-02T12:40:33.901Z,18.95
2016-08-02T12:41:33.890Z,19.02
2016-08-02T12:42:33.179Z,19.1
2016-08-02T12:43:33.876Z,19.01
2016-08-02T12:44:33.874Z,18.99
2016-08-02T12:45:33.867Z,19.05
2016-08-02T12:46:33.854Z,19.06
2016-08-02T12:47:33.149Z,19.02
2016-08-02T12:48:33.843Z,19.1
2016-08-02T12:49:34.538Z,19.13
2016-08-02T12:50:33.137Z,19.11
2016-08-02T12:51:33.109Z,19.18
2016-08-02T12:52:33.101Z,19.13
2016-08-02T12:53:33.144Z,19.06
2016-08-02T12:54:33.998Z,19.02
2016-08-02T12:55:33.078Z,19.06
2016-08-02T12:56:33.074Z,18.97
2016-08-02T12:57:33.109Z,19.02
2016-08-02T12:58:33.769Z,18.83
2016-08-02T12:59:33.047Z,18.97
2016-08-02T13:00:34.457Z,18.99
2016-08-02T13:01:33.747Z,19.08
2016-08-02T13:02:33.734Z,19.06
2016-08-02T13:03:33.726Z,19.08